Terminal Aerodrome Forecast
Issued by NWS Omaha/Valley, NE

Home | Current Version | Previous Version | Text Only | Print | Product List | Glossary Off
Versions: 1 2 3 4 5 6 7 8 9 10 11 12 13 14 15 16 17

000
FTUS43 KOAX 271724
TAFOFK
TAF
KOFK 271724Z 2718/2818 08018G27KT P6SM OVC004
      TEMPO 2719/2721 4SM SHRA OVC007
     FM272100 07014G24KT P6SM OVC008
     FM280100 04013KT 6SM -SHRA OVC008
     FM280600 36011KT P6SM VCSH OVC003
     FM281700 34011KT P6SM OVC008=

USA.gov is the U.S. government's official web portal to all federal, state and local government web resources and services.